Time;durP1;ratioP1;P1;durP2;ratioP2;P2;SDS_P1;SDS_P2;PMS_P1;PMS_P2;Temp;Humidity;BMP_temperature;BMP_pressure;BME280_temperature;BME280_humidity;BME280_pressure;Samples;Min_cycle;Max_cycle;Signal;HPM_P1;HPM_P2
2021/05/19 00:01:38;;;;;;;0.10;0.10;;;13.80;99.90;;;;;;6184469;23;20434;-78
2021/05/19 00:04:06;;;;;;;0.10;0.10;;;13.70;99.90;;;;;;6184344;23;20335;-79
2021/05/19 00:06:32;;;;;;;0.10;0.10;;;13.80;99.90;;;;;;6184371;23;20148;-79
2021/05/19 00:08:58;;;;;;;0.10;0.10;;;13.80;99.90;;;;;;6184065;23;20013;-79
2021/05/19 00:11:24;;;;;;;0.10;0.10;;;13.60;99.90;;;;;;6184222;23;20001;-80
2021/05/19 00:13:50;;;;;;;0.10;0.10;;;13.50;99.90;;;;;;6184190;23;20052;-79
2021/05/19 00:16:17;;;;;;;0.17;0.17;;;13.60;99.90;;;;;;6184106;23;20360;-78
2021/05/19 00:18:42;;;;;;;0.10;0.10;;;13.70;99.90;;;;;;6184073;23;20009;-78
2021/05/19 00:21:08;;;;;;;0.10;0.10;;;13.60;99.90;;;;;;6184004;23;20479;-78
2021/05/19 00:23:35;;;;;;;0.10;0.10;;;13.60;99.90;;;;;;6184319;23;20024;-78
2021/05/19 00:26:00;;;;;;;0.10;0.10;;;13.60;99.90;;;;;;6184059;23;20336;-78
2021/05/19 00:28:26;;;;;;;0.10;0.10;;;13.60;99.90;;;;;;6183101;23;20013;-78
2021/05/19 00:30:56;;;;;;;0.10;0.10;;;13.60;99.90;;;;;;6184232;23;20001;-79
2021/05/19 00:33:22;;;;;;;0.10;0.10;;;13.60;99.90;;;;;;6183683;23;20009;-78
2021/05/19 00:35:48;;;;;;;0.10;0.10;;;13.60;99.90;;;;;;6183828;23;19998;-78
2021/05/19 00:38:14;;;;;;;0.10;0.10;;;13.70;99.90;;;;;;6183793;23;20024;-78
2021/05/19 00:40:40;;;;;;;0.10;0.10;;;13.70;99.90;;;;;;6184040;23;20016;-78
2021/05/19 00:43:05;;;;;;;0.10;0.10;;;13.70;99.90;;;;;;6183984;23;20001;-78
2021/05/19 00:45:31;;;;;;;0.10;0.10;;;13.60;99.90;;;;;;6184076;23;20009;-78
2021/05/19 00:47:58;;;;;;;0.10;0.10;;;13.50;99.90;;;;;;6183711;23;20013;-78
2021/05/19 00:50:27;;;;;;;0.10;0.10;;;13.50;99.90;;;;;;6183979;23;19997;-78
2021/05/19 00:52:53;;;;;;;0.10;0.10;;;13.50;99.90;;;;;;6183541;23;20672;-78
2021/05/19 00:55:20;;;;;;;0.10;0.10;;;13.40;99.90;;;;;;6183127;23;20024;-78
2021/05/19 00:57:48;;;;;;;0.10;0.10;;;13.40;99.90;;;;;;6182010;23;20407;-77
2021/05/19 01:00:16;;;;;;;0.10;0.10;;;13.40;99.90;;;;;;6184160;23;20005;-78
2021/05/19 01:02:42;;;;;;;0.10;0.10;;;13.50;99.90;;;;;;6183637;23;20060;-78
2021/05/19 01:05:17;;;;;;;0.10;0.10;;;13.50;99.90;;;;;;6183937;23;20001;-78
2021/05/19 01:10:29;;;;;;;0.75;0.75;;;13.40;99.90;;;;;;6152153;23;20451;-78
2021/05/19 01:12:55;;;;;;;0.10;0.10;;;13.40;99.90;;;;;;6183640;23;19993;-78
2021/05/19 01:15:21;;;;;;;0.10;0.10;;;13.20;99.90;;;;;;6183989;23;20001;-77
2021/05/19 01:17:48;;;;;;;0.10;0.10;;;13.20;99.90;;;;;;6183720;23;20012;-77
2021/05/19 01:20:14;;;;;;;0.10;0.10;;;13.20;99.90;;;;;;6183806;23;20082;-79
2021/05/19 01:22:41;;;;;;;0.10;0.10;;;13.20;99.90;;;;;;6183472;23;20342;-78
2021/05/19 01:25:10;;;;;;;0.10;0.10;;;13.20;99.90;;;;;;6183323;23;20001;-78
2021/05/19 01:27:37;;;;;;;0.10;0.10;;;13.20;99.90;;;;;;6181687;23;20005;-77
2021/05/19 01:30:05;;;;;;;0.10;0.10;;;13.10;99.90;;;;;;6183510;23;20454;-76
2021/05/19 01:32:31;;;;;;;0.25;0.25;;;13.20;99.90;;;;;;6183550;23;20084;-76
2021/05/19 01:34:57;;;;;;;0.10;0.10;;;13.20;99.90;;;;;;6183689;23;20020;-77
2021/05/19 01:37:22;;;;;;;0.25;0.25;;;13.20;99.90;;;;;;6183424;23;20001;-77
2021/05/19 01:39:48;;;;;;;0.10;0.10;;;13.10;99.90;;;;;;6181851;23;20001;-78
2021/05/19 01:42:14;;;;;;;0.20;0.20;;;13.10;99.90;;;;;;6183243;23;20009;-77
2021/05/19 01:44:40;;;;;;;0.10;0.10;;;13.10;99.90;;;;;;6183491;23;20036;-78
2021/05/19 01:47:08;;;;;;;0.10;0.10;;;13.10;99.90;;;;;;6183764;23;20037;-79
2021/05/19 01:49:43;;;;;;;0.10;0.10;;;13.00;99.90;;;;;;6181557;23;20339;-77
2021/05/19 01:52:12;;;;;;;0.10;0.10;;;13.00;99.90;;;;;;6183194;23;20001;-77
2021/05/19 01:54:40;;;;;;;0.10;0.10;;;13.10;99.90;;;;;;6183152;23;20015;-77
2021/05/19 01:57:07;;;;;;;0.10;0.10;;;13.00;99.90;;;;;;6183304;23;20127;-77
2021/05/19 01:59:33;;;;;;;0.10;0.10;;;13.00;99.90;;;;;;6183281;23;20040;-77
2021/05/19 02:01:59;;;;;;;0.10;0.10;;;12.90;99.90;;;;;;6183354;23;20011;-78
2021/05/19 02:04:26;;;;;;;0.10;0.10;;;12.90;99.90;;;;;;6183289;23;20088;-76
2021/05/19 02:06:55;;;;;;;0.10;0.10;;;12.80;99.90;;;;;;6183539;23;20063;-78
2021/05/19 02:09:22;;;;;;;0.10;0.10;;;12.80;99.90;;;;;;6183043;23;20013;-79
2021/05/19 02:11:49;;;;;;;0.10;0.10;;;12.80;99.90;;;;;;6183335;23;20072;-79
2021/05/19 02:14:16;;;;;;;0.10;0.10;;;12.80;99.90;;;;;;6183177;23;20055;-79
2021/05/19 02:16:41;;;;;;;0.10;0.10;;;12.80;99.90;;;;;;6183429;23;20005;-79
2021/05/19 02:19:14;;;;;;;0.10;0.10;;;12.70;99.90;;;;;;6181430;23;20016;-80
2021/05/19 02:21:45;;;;;;;0.10;0.10;;;12.70;99.90;;;;;;6183158;23;20079;-79
2021/05/19 02:24:12;;;;;;;0.10;0.10;;;12.80;99.90;;;;;;6183031;23;20063;-79
2021/05/19 02:26:39;;;;;;;0.10;0.10;;;12.80;99.90;;;;;;6183024;23;20426;-80
2021/05/19 02:29:06;;;;;;;0.10;0.10;;;12.80;99.90;;;;;;6183059;23;20044;-79
2021/05/19 02:31:33;;;;;;;0.10;0.10;;;12.70;99.90;;;;;;6183329;23;20324;-79
2021/05/19 02:33:59;;;;;;;0.10;0.10;;;12.80;99.90;;;;;;6182956;23;20005;-79
2021/05/19 02:36:25;;;;;;;0.10;0.10;;;12.80;99.90;;;;;;6183382;23;20024;-79
2021/05/19 02:38:51;;;;;;;0.20;0.20;;;12.80;99.90;;;;;;6183062;23;20417;-80
2021/05/19 02:41:17;;;;;;;0.10;0.10;;;12.90;99.90;;;;;;6183231;23;20447;-80
2021/05/19 02:43:43;;;;;;;0.10;0.10;;;12.90;99.90;;;;;;6181455;23;20036;-79
2021/05/19 02:46:08;;;;;;;0.10;0.10;;;12.90;99.90;;;;;;6182998;23;20004;-79
2021/05/19 02:48:34;;;;;;;0.10;0.10;;;12.90;99.90;;;;;;6182755;23;20624;-77
2021/05/19 02:51:00;;;;;;;0.10;0.10;;;12.80;99.90;;;;;;6183128;23;20001;-78
2021/05/19 02:53:26;;;;;;;0.10;0.10;;;12.90;99.90;;;;;;6181385;23;20447;-77
2021/05/19 02:55:51;;;;;;;0.10;0.10;;;12.90;99.90;;;;;;6183021;23;20000;-78
2021/05/19 02:58:17;;;;;;;0.10;0.10;;;12.80;99.90;;;;;;6182895;23;20009;-79
2021/05/19 03:00:43;;;;;;;0.10;0.10;;;12.70;99.90;;;;;;6183039;23;20004;-79
2021/05/19 03:03:08;;;;;;;0.10;0.10;;;12.70;99.90;;;;;;6183694;23;20001;-79
2021/05/19 03:05:34;;;;;;;0.10;0.10;;;12.60;99.90;;;;;;6185054;23;20645;-79
2021/05/19 03:08:00;;;;;;;0.10;0.10;;;12.50;99.90;;;;;;6184689;23;20012;-79
2021/05/19 03:10:27;;;;;;;0.25;0.25;;;12.50;99.90;;;;;;6184766;23;20001;-79
2021/05/19 03:12:53;;;;;;;0.10;0.10;;;12.40;99.90;;;;;;6184808;23;20072;-79
2021/05/19 03:15:20;;;;;;;0.10;0.10;;;12.40;99.90;;;;;;6184970;23;20025;-79
2021/05/19 03:17:46;;;;;;;0.10;0.10;;;12.40;99.90;;;;;;6184815;23;20005;-79
2021/05/19 03:20:13;;;;;;;0.93;0.93;;;12.40;99.90;;;;;;6184919;23;20009;-79
2021/05/19 03:22:39;;;;;;;;;;;12.40;99.90;;;;;;6184883;23;20104;-78
2021/05/19 03:25:06;;;;;;;0.10;0.10;;;12.40;99.90;;;;;;6184701;23;19924;-79
2021/05/19 03:27:33;;;;;;;0.10;0.10;;;12.40;99.90;;;;;;6184446;23;20009;-80
2021/05/19 03:29:59;;;;;;;0.20;0.20;;;12.40;99.90;;;;;;6183351;23;20344;-79
2021/05/19 03:32:24;;;;;;;0.10;0.10;;;12.40;99.90;;;;;;6183081;23;20001;-78
2021/05/19 03:34:50;;;;;;;0.10;0.10;;;12.40;99.90;;;;;;6184633;23;20425;-78
2021/05/19 03:37:16;;;;;;;0.10;0.10;;;12.40;99.90;;;;;;6184663;23;20367;-79
2021/05/19 03:39:42;;;;;;;0.10;0.10;;;12.40;99.90;;;;;;6183187;23;20017;-78
2021/05/19 03:42:08;;;;;;;0.10;0.10;;;12.40;99.90;;;;;;6184614;23;20051;-79
2021/05/19 03:44:33;;;;;;;0.10;0.10;;;12.30;99.90;;;;;;6184291;23;20001;-78
2021/05/19 03:46:59;;;;;;;0.13;0.13;;;12.40;99.90;;;;;;6184629;23;20004;-79
2021/05/19 03:49:28;;;;;;;0.10;0.10;;;12.30;99.90;;;;;;6184386;23;20019;-79
2021/05/19 03:51:54;;;;;;;0.10;0.10;;;12.30;99.90;;;;;;6184573;23;20507;-80
2021/05/19 03:54:20;;;;;;;0.20;0.20;;;12.30;99.90;;;;;;6184509;23;20001;-79
2021/05/19 03:56:49;;;;;;;0.17;0.17;;;12.40;99.90;;;;;;6184285;23;19997;-79
2021/05/19 03:59:15;;;;;;;0.10;0.10;;;12.30;99.90;;;;;;6184235;23;19997;-79
2021/05/19 04:01:40;;;;;;;0.20;0.20;;;12.40;99.90;;;;;;6183028;23;20012;-79
2021/05/19 04:04:06;;;;;;;0.20;0.20;;;12.30;99.90;;;;;;6184384;23;20479;-79
2021/05/19 04:06:32;;;;;;;0.10;0.10;;;12.30;99.90;;;;;;6184657;23;20005;-79
2021/05/19 04:08:57;;;;;;;0.10;0.10;;;12.30;99.90;;;;;;6184116;23;20013;-78
2021/05/19 04:11:24;;;;;;;0.10;0.10;;;12.30;99.90;;;;;;6184387;23;20068;-80
2021/05/19 04:13:50;;;;;;;0.30;0.30;;;12.40;99.90;;;;;;6184082;23;20001;-79
2021/05/19 04:16:16;;;;;;;14.13;0.75;;;12.30;99.90;;;;;;6184349;23;19997;-80
2021/05/19 04:18:42;;;;;;;0.28;0.28;;;12.40;99.90;;;;;;6184085;23;20451;-77
2021/05/19 04:21:08;;;;;;;0.10;0.10;;;12.40;99.90;;;;;;6184189;23;19997;-79
2021/05/19 04:23:34;;;;;;;0.10;0.10;;;12.40;99.90;;;;;;6182540;23;20008;-80
2021/05/19 04:26:00;;;;;;;0.10;0.10;;;12.40;99.90;;;;;;6184200;23;20604;-78
2021/05/19 04:28:26;;;;;;;0.10;0.10;;;12.40;99.90;;;;;;6183704;23;20027;-78
2021/05/19 04:30:53;;;;;;;0.10;0.10;;;12.40;99.90;;;;;;6184407;23;20016;-78
2021/05/19 04:33:20;;;;;;;0.73;0.73;;;12.40;99.90;;;;;;6184017;23;20567;-79
2021/05/19 04:35:46;;;;;;;;;;;12.40;99.90;;;;;;6184813;23;20001;-78
2021/05/19 04:38:12;;;;;;;0.10;0.10;;;12.50;99.90;;;;;;6184023;23;19911;-78
2021/05/19 04:40:37;;;;;;;0.10;0.10;;;12.50;99.90;;;;;;6183905;23;20071;-79
2021/05/19 04:43:06;;;;;;;0.10;0.10;;;12.50;99.90;;;;;;6183785;23;20001;-78
2021/05/19 04:45:33;;;;;;;0.20;0.20;;;12.50;99.90;;;;;;6182496;23;20405;-78
2021/05/19 04:47:58;;;;;;;0.10;0.10;;;12.50;99.90;;;;;;6182174;23;20444;-79
2021/05/19 04:50:25;;;;;;;0.10;0.10;;;12.50;99.90;;;;;;6184115;23;19998;-79
2021/05/19 04:52:51;;;;;;;0.10;0.10;;;12.40;99.90;;;;;;6183838;23;20008;-77
2021/05/19 04:55:16;;;;;;;0.10;0.10;;;12.40;99.90;;;;;;6183971;23;20306;-77
2021/05/19 04:57:43;;;;;;;0.10;0.10;;;12.50;99.90;;;;;;6183573;23;20028;-78
2021/05/19 05:00:10;;;;;;;0.10;0.10;;;12.50;99.90;;;;;;6184084;23;20332;-78
2021/05/19 05:02:37;;;;;;;;;;;12.50;99.90;;;;;;6182719;23;20001;-78
2021/05/19 05:05:05;;;;;;;0.15;0.15;;;12.50;99.90;;;;;;6183806;23;19911;-77
2021/05/19 05:07:31;;;;;;;0.10;0.10;;;12.50;99.90;;;;;;6183551;23;20028;-78
2021/05/19 05:09:56;;;;;;;0.10;0.10;;;12.50;99.90;;;;;;6183834;23;20017;-77
2021/05/19 05:12:23;;;;;;;0.10;0.10;;;12.50;99.90;;;;;;6183524;23;20012;-79
2021/05/19 05:14:49;;;;;;;0.10;0.10;;;12.50;99.90;;;;;;6183850;23;20005;-78
2021/05/19 05:17:15;;;;;;;0.20;0.20;;;12.50;99.90;;;;;;6182138;23;20005;-78
2021/05/19 05:19:40;;;;;;;0.10;0.10;;;12.60;99.90;;;;;;6182258;23;20083;-79
2021/05/19 05:22:06;;;;;;;0.10;0.10;;;12.50;99.90;;;;;;6183731;23;20040;-78
2021/05/19 05:24:32;;;;;;;0.10;0.10;;;12.50;99.90;;;;;;6181830;23;20089;-77
2021/05/19 05:26:58;;;;;;;0.10;0.10;;;12.40;99.90;;;;;;6183050;23;20005;-79
2021/05/19 05:29:23;;;;;;;0.10;0.10;;;12.30;99.90;;;;;;6183175;23;20343;-78
2021/05/19 05:31:49;;;;;;;0.13;0.13;;;12.30;99.90;;;;;;6183857;23;19993;-78
2021/05/19 05:34:16;;;;;;;0.10;0.10;;;12.20;99.90;;;;;;6181945;23;20044;-77
2021/05/19 05:36:41;;;;;;;0.10;0.10;;;12.30;99.90;;;;;;6183594;23;20251;-78
2021/05/19 05:39:07;;;;;;;0.10;0.10;;;12.20;99.90;;;;;;6181821;23;20017;-78
2021/05/19 05:41:33;;;;;;;0.10;0.10;;;12.20;99.90;;;;;;6183516;23;20005;-77
2021/05/19 05:43:59;;;;;;;0.13;0.13;;;12.20;99.90;;;;;;6183201;23;20008;-77
2021/05/19 05:46:24;;;;;;;0.10;0.10;;;12.20;99.90;;;;;;6183549;23;20001;-76
2021/05/19 05:48:50;;;;;;;0.10;0.10;;;12.10;99.90;;;;;;6183266;23;20440;-76
2021/05/19 05:51:16;;;;;;;0.10;0.10;;;12.10;99.90;;;;;;6181980;23;20041;-76
2021/05/19 05:53:42;;;;;;;0.10;0.10;;;12.10;99.90;;;;;;6181489;23;19997;-76
2021/05/19 05:56:07;;;;;;;0.77;0.77;;;12.10;99.90;;;;;;6182021;23;20001;-77
2021/05/19 05:58:33;;;;;;;0.30;0.30;;;12.00;99.90;;;;;;6180820;23;20009;-76
2021/05/19 06:00:59;;;;;;;0.10;0.10;;;12.00;99.90;;;;;;6180307;23;20026;-77
2021/05/19 06:03:25;;;;;;;0.10;0.10;;;12.00;99.90;;;;;;6180934;23;20126;-77
2021/05/19 06:05:50;;;;;;;0.10;0.10;;;12.00;99.90;;;;;;6181157;23;20005;-76
2021/05/19 06:08:16;;;;;;;0.10;0.10;;;12.00;99.90;;;;;;6180294;23;20052;-76
2021/05/19 06:10:42;;;;;;;0.10;0.10;;;12.10;99.90;;;;;;6180736;23;20116;-77
2021/05/19 06:13:08;;;;;;;0.10;0.10;;;12.10;99.90;;;;;;6179461;23;20036;-80
2021/05/19 06:15:34;;;;;;;2.17;0.38;;;12.10;99.90;;;;;;6182933;23;20005;-78
2021/05/19 06:18:00;;;;;;;0.10;0.10;;;12.00;99.90;;;;;;6182148;23;20008;-78
2021/05/19 06:20:25;;;;;;;0.10;0.10;;;12.00;99.90;;;;;;6183132;23;20043;-78
2021/05/19 06:22:51;;;;;;;0.13;0.13;;;12.10;99.90;;;;;;6182752;23;20405;-79
2021/05/19 06:25:18;;;;;;;0.10;0.10;;;12.10;99.90;;;;;;6183152;23;20083;-78
2021/05/19 06:27:44;;;;;;;0.20;0.20;;;12.00;99.90;;;;;;6182435;23;20032;-79
2021/05/19 06:30:10;;;;;;;0.10;0.10;;;12.00;99.90;;;;;;6181780;23;19997;-83
2021/05/19 06:32:36;;;;;;;0.10;0.10;;;12.00;99.90;;;;;;6182933;23;20145;-77
2021/05/19 06:35:02;;;;;;;0.10;0.10;;;12.00;99.90;;;;;;6183078;23;20028;-80
2021/05/19 06:37:27;;;;;;;0.10;0.10;;;12.00;99.90;;;;;;6182109;23;20060;-77
2021/05/19 06:39:53;;;;;;;0.10;0.10;;;11.90;99.90;;;;;;6183476;23;20040;-77
2021/05/19 06:42:20;;;;;;;0.10;0.10;;;11.90;99.90;;;;;;6184694;23;20005;-77
2021/05/19 06:44:46;;;;;;;0.10;0.10;;;12.00;99.90;;;;;;6184792;23;20031;-79
2021/05/19 06:47:12;;;;;;;0.10;0.10;;;12.00;99.90;;;;;;6179943;23;20541;-78
2021/05/19 06:49:38;;;;;;;0.10;0.10;;;12.10;99.90;;;;;;6184266;23;20016;-78
2021/05/19 06:52:04;;;;;;;0.10;0.10;;;12.10;99.90;;;;;;6182712;23;20005;-78
2021/05/19 06:54:29;;;;;;;0.20;0.20;;;12.10;99.90;;;;;;6182412;23;20088;-79
2021/05/19 06:56:55;;;;;;;0.10;0.10;;;12.00;99.90;;;;;;6183639;23;20029;-78
2021/05/19 06:59:22;;;;;;;0.10;0.10;;;11.90;99.90;;;;;;6184334;23;20029;-78
2021/05/19 07:01:47;;;;;;;0.10;0.10;;;11.90;99.90;;;;;;6184844;23;20087;-78
2021/05/19 07:04:14;;;;;;;0.10;0.10;;;11.80;99.90;;;;;;6184404;23;20025;-77
2021/05/19 07:06:40;;;;;;;0.20;0.20;;;11.80;99.90;;;;;;6184765;23;20001;-78
2021/05/19 07:09:06;;;;;;;0.10;0.10;;;11.90;99.90;;;;;;6184313;23;20260;-77
2021/05/19 07:11:33;;;;;;;0.10;0.10;;;11.90;99.90;;;;;;6184552;23;20005;-77
2021/05/19 07:14:01;;;;;;;0.15;0.15;;;11.90;99.90;;;;;;6184571;23;20498;-77
2021/05/19 07:16:27;;;;;;;0.10;0.10;;;11.90;99.90;;;;;;6184749;23;19993;-77
2021/05/19 07:18:55;;;;;;;0.10;0.10;;;11.80;99.90;;;;;;6184338;23;20494;-77
2021/05/19 07:21:25;;;;;;;0.10;0.10;;;11.70;99.90;;;;;;6184537;23;20007;-77
2021/05/19 07:23:51;;;;;;;0.10;0.10;;;11.70;99.90;;;;;;6184193;23;20013;-76
2021/05/19 07:26:19;;;;;;;0.10;0.10;;;11.70;99.90;;;;;;6184614;23;20064;-78
2021/05/19 07:28:45;;;;;;;0.10;0.10;;;11.70;99.90;;;;;;6184376;23;20020;-77
2021/05/19 07:31:11;;;;;;;0.10;0.10;;;11.70;99.90;;;;;;6184476;23;19997;-77
2021/05/19 07:33:36;;;;;;;0.10;0.10;;;11.90;99.90;;;;;;6182913;23;20001;-76
2021/05/19 07:36:03;;;;;;;0.10;0.10;;;11.90;99.90;;;;;;6184807;23;20067;-78
2021/05/19 07:38:28;;;;;;;0.10;0.10;;;11.80;99.90;;;;;;6184337;23;20005;-78
2021/05/19 07:40:54;;;;;;;0.10;0.10;;;11.70;99.90;;;;;;6184417;23;20007;-77
2021/05/19 07:43:20;;;;;;;0.10;0.10;;;11.70;99.90;;;;;;6182379;23;20016;-77
2021/05/19 07:45:46;;;;;;;0.90;0.50;;;11.80;99.90;;;;;;6183689;23;19993;-77
2021/05/19 07:48:11;;;;;;;0.10;0.10;;;11.90;99.90;;;;;;6180412;23;20088;-77
2021/05/19 07:50:38;;;;;;;0.10;0.10;;;11.90;99.90;;;;;;6184002;23;20492;-77
2021/05/19 07:53:05;;;;;;;0.10;0.10;;;12.00;99.90;;;;;;6182411;23;20392;-77
2021/05/19 07:55:48;;;;;;;0.10;0.10;;;11.90;99.90;;;;;;6184467;23;20005;-78
2021/05/19 07:58:20;;;;;;;0.13;0.13;;;12.00;99.90;;;;;;6183548;23;20005;-77
2021/05/19 08:03:21;;;;;;;0.10;0.10;;;12.10;99.90;;;;;;6186461;23;20016;-75
2021/05/19 08:05:46;;;;;;;0.10;0.10;;;12.20;99.90;;;;;;6184246;23;20337;-75
2021/05/19 08:08:12;;;;;;;0.10;0.10;;;12.40;99.90;;;;;;6183725;23;20012;-76
2021/05/19 08:10:38;;;;;;;0.10;0.10;;;12.50;99.90;;;;;;6183959;23;20425;-77
2021/05/19 08:13:04;;;;;;;0.10;0.10;;;12.70;99.90;;;;;;6183583;23;20008;-76
2021/05/19 08:15:30;;;;;;;0.10;0.10;;;12.80;99.90;;;;;;6183783;23;20356;-77
2021/05/19 08:17:56;;;;;;;0.10;0.10;;;12.80;99.90;;;;;;6183782;23;20001;-77
2021/05/19 08:20:22;;;;;;;0.10;0.10;;;12.70;99.90;;;;;;6183433;23;20029;-78
2021/05/19 08:22:49;;;;;;;0.10;0.10;;;12.60;99.90;;;;;;6181801;23;20333;-77
2021/05/19 08:25:15;;;;;;;0.10;0.10;;;12.40;99.90;;;;;;6183965;23;20563;-78
2021/05/19 08:27:40;;;;;;;0.10;0.10;;;12.40;99.90;;;;;;6182264;23;20140;-78
2021/05/19 08:30:09;;;;;;;0.10;0.10;;;12.30;99.90;;;;;;6182532;23;20036;-77
2021/05/19 08:32:36;;;;;;;0.10;0.10;;;12.30;99.90;;;;;;6182566;23;19997;-77
2021/05/19 08:35:02;;;;;;;0.10;0.10;;;12.30;99.90;;;;;;6182499;23;19997;-78
2021/05/19 08:37:28;;;;;;;0.10;0.10;;;12.40;99.90;;;;;;6182552;23;19997;-77
2021/05/19 08:39:53;;;;;;;0.10;0.10;;;12.50;99.90;;;;;;6182790;23;20001;-76
2021/05/19 08:42:19;;;;;;;0.10;0.10;;;12.60;99.90;;;;;;6180790;23;20001;-78
2021/05/19 08:44:45;;;;;;;0.13;0.13;;;12.60;99.90;;;;;;6176752;23;20009;-77
2021/05/19 08:47:11;;;;;;;0.10;0.10;;;12.50;99.90;;;;;;6180291;23;20084;-76
2021/05/19 08:49:39;;;;;;;0.10;0.10;;;12.50;99.90;;;;;;6181618;23;20079;-77
2021/05/19 08:52:05;;;;;;;0.10;0.10;;;12.60;99.90;;;;;;6183115;23;20001;-78
2021/05/19 08:54:31;;;;;;;0.10;0.10;;;12.60;99.90;;;;;;6182095;23;20008;-77
2021/05/19 08:56:57;;;;;;;0.10;0.10;;;12.60;99.90;;;;;;6181771;23;20068;-77
2021/05/19 08:59:22;;;;;;;0.10;0.10;;;12.60;99.90;;;;;;6181747;23;20475;-77
2021/05/19 09:01:50;;;;;;;0.38;0.20;;;12.70;99.90;;;;;;6180676;23;20005;-77
2021/05/19 09:04:22;;;;;;;0.10;0.10;;;12.80;99.90;;;;;;6182369;23;20104;-77
2021/05/19 09:06:52;;;;;;;0.10;0.10;;;12.80;99.90;;;;;;6181884;23;20444;-77
2021/05/19 09:09:19;;;;;;;0.10;0.10;;;12.90;99.90;;;;;;6181890;23;20045;-77
2021/05/19 09:11:59;;;;;;;0.10;0.10;;;12.90;99.90;;;;;;6181673;23;20421;-77
2021/05/19 09:14:26;;;;;;;0.10;0.10;;;12.80;99.90;;;;;;6180249;23;20565;-78
2021/05/19 09:16:52;;;;;;;0.10;0.10;;;12.70;99.90;;;;;;6181958;23;20001;-77
2021/05/19 09:19:34;;;;;;;0.10;0.10;;;12.70;99.90;;;;;;6181820;23;20093;-77
2021/05/19 09:22:00;;;;;;;0.10;0.10;;;12.60;99.90;;;;;;6181847;23;20027;-77
2021/05/19 09:24:38;;;;;;;0.10;0.10;;;12.60;99.90;;;;;;6179970;23;20088;-77
2021/05/19 09:27:04;;;;;;;0.10;0.10;;;12.60;99.90;;;;;;6181287;23;20005;-78
2021/05/19 09:29:52;;;;;;;0.10;0.10;;;12.50;99.90;;;;;;6182235;23;20013;-78
2021/05/19 09:32:20;;;;;;;0.10;0.10;;;12.50;99.90;;;;;;6182058;23;20033;-78
2021/05/19 09:34:53;;;;;;;0.10;0.10;;;12.50;99.90;;;;;;6181537;23;20433;-77
2021/05/19 09:37:26;;;;;;;0.10;0.10;;;12.50;99.90;;;;;;6176886;23;20008;-78
2021/05/19 09:39:51;;;;;;;0.10;0.10;;;12.60;99.90;;;;;;6177019;23;20424;-77
2021/05/19 09:42:19;;;;;;;0.10;0.10;;;12.60;99.90;;;;;;6175635;23;20077;-77
2021/05/19 09:44:47;;;;;;;0.10;0.10;;;12.60;99.90;;;;;;6176847;23;20009;-78
2021/05/19 09:47:34;;;;;;;0.10;0.10;;;12.60;99.90;;;;;;6175742;23;20507;-78
2021/05/19 09:49:59;;;;;;;0.10;0.10;;;12.50;99.90;;;;;;6177136;23;20040;-77
2021/05/19 09:52:25;;;;;;;0.10;0.10;;;12.60;99.90;;;;;;6176742;23;20386;-77
2021/05/19 09:54:51;;;;;;;0.10;0.10;;;12.70;99.90;;;;;;6175464;23;20032;-77
2021/05/19 09:57:18;;;;;;;0.10;0.10;;;12.80;99.90;;;;;;6174296;23;20016;-78
2021/05/19 09:59:45;;;;;;;0.10;0.10;;;12.80;99.90;;;;;;6176698;23;20001;-77
2021/05/19 10:02:12;;;;;;;0.10;0.10;;;12.80;99.90;;;;;;6176610;23;20009;-78
2021/05/19 10:04:40;;;;;;;0.10;0.10;;;12.80;99.90;;;;;;6174345;23;20455;-77
2021/05/19 10:07:14;;;;;;;0.10;0.10;;;12.80;99.90;;;;;;6176217;23;20005;-77
2021/05/19 10:09:39;;;;;;;0.10;0.10;;;12.80;99.90;;;;;;6176525;23;20043;-77
2021/05/19 10:12:05;;;;;;;0.10;0.10;;;12.80;99.90;;;;;;6176062;23;20432;-77
2021/05/19 10:14:31;;;;;;;0.10;0.10;;;12.80;99.90;;;;;;6176361;23;20504;-77
2021/05/19 10:17:12;;;;;;;0.10;0.10;;;12.80;99.90;;;;;;6176314;23;20001;-77
2021/05/19 10:20:03;;;;;;;0.10;0.10;;;12.80;99.90;;;;;;6176328;23;20411;-76
2021/05/19 10:22:30;;;;;;;0.10;0.10;;;12.80;99.90;;;;;;6175902;23;20024;-77
2021/05/19 10:25:05;;;;;;;0.10;0.10;;;12.80;99.90;;;;;;6176672;23;20051;-76
2021/05/19 10:27:49;;;;;;;0.10;0.10;;;12.80;99.90;;;;;;6175390;23;20025;-76
2021/05/19 10:30:38;;;;;;;0.10;0.10;;;12.70;99.90;;;;;;6176280;23;20013;-77
2021/05/19 10:33:24;;;;;;;0.10;0.10;;;12.80;99.90;;;;;;6174466;23;20088;-77
2021/05/19 10:35:50;;;;;;;0.10;0.10;;;12.70;99.90;;;;;;6177410;23;20029;-78
2021/05/19 10:38:23;;;;;;;0.10;0.10;;;12.80;99.90;;;;;;6176253;23;20425;-80
2021/05/19 10:40:57;;;;;;;0.20;0.20;;;12.90;99.90;;;;;;6176780;23;20005;-79
2021/05/19 10:43:48;;;;;;;0.10;0.10;;;12.90;99.90;;;;;;6176344;23;20005;-77
2021/05/19 10:46:34;;;;;;;0.10;0.10;;;13.00;99.90;;;;;;6176014;23;20013;-79
2021/05/19 10:49:00;;;;;;;0.10;0.10;;;13.00;99.90;;;;;;6175473;23;20108;-79
2021/05/19 10:51:34;;;;;;;0.10;0.10;;;12.90;99.90;;;;;;6176435;23;20012;-79
2021/05/19 11:00:11;;;;;;;0.10;0.10;;;13.00;99.90;;;;;;6176293;23;20651;-78
2021/05/19 11:02:57;;;;;;;0.10;0.10;;;13.00;99.90;;;;;;6175611;23;20001;-78
2021/05/19 11:05:25;;;;;;;0.10;0.10;;;13.10;99.90;;;;;;6173450;23;20037;-77
2021/05/19 11:08:13;;;;;;;0.10;0.10;;;13.00;99.90;;;;;;6174923;23;20015;-77
2021/05/19 11:10:45;;;;;;;0.10;0.10;;;12.90;99.90;;;;;;6175139;23;20013;-78
2021/05/19 11:13:11;;;;;;;0.00;0.00;;;12.90;99.90;;;;;;6173426;23;20005;-79
2021/05/19 11:21:21;;;;;;;0.10;0.10;;;12.80;99.90;;;;;;6177363;23;20032;-78
2021/05/19 11:24:07;;;;;;;0.10;0.10;;;12.80;99.90;;;;;;6175289;23;20015;-77
2021/05/19 11:26:51;;;;;;;0.10;0.10;;;12.90;99.90;;;;;;6176940;23;20005;-78
2021/05/19 11:29:17;;;;;;;0.10;0.10;;;13.00;99.90;;;;;;6176713;23;20013;-77
2021/05/19 11:31:51;;;;;;;0.10;0.10;;;13.00;99.90;;;;;;6177890;23;20005;-77
2021/05/19 11:34:21;;;;;;;0.10;0.10;;;13.10;99.90;;;;;;6178140;23;20039;-77
2021/05/19 11:36:57;;;;;;;0.10;0.10;;;13.00;99.90;;;;;;6181418;23;20436;-77
2021/05/19 11:39:38;;;;;;;0.10;0.10;;;13.00;99.90;;;;;;6184038;23;20009;-77
2021/05/19 11:42:15;;;;;;;0.10;0.10;;;13.10;99.90;;;;;;6180062;23;20001;-77
2021/05/19 11:44:49;;;;;;;0.10;0.10;;;13.10;99.90;;;;;;6178876;23;20039;-76
2021/05/19 11:47:22;;;;;;;0.10;0.10;;;13.20;99.90;;;;;;6179490;23;20008;-78
2021/05/19 11:50:03;;;;;;;0.10;0.10;;;13.20;99.90;;;;;;6179401;23;20017;-78
2021/05/19 11:52:38;;;;;;;0.10;0.10;;;13.30;99.90;;;;;;6179739;23;20001;-77
2021/05/19 11:55:05;;;;;;;0.10;0.10;;;13.50;99.90;;;;;;6179727;23;20009;-79
2021/05/19 11:57:32;;;;;;;0.10;0.10;;;13.60;99.90;;;;;;6177798;23;20005;-77
2021/05/19 11:59:58;;;;;;;0.10;0.10;;;13.70;99.90;;;;;;6180775;23;20005;-78
2021/05/19 12:02:27;;;;;;;0.10;0.10;;;13.70;99.90;;;;;;6180421;23;20062;-79
2021/05/19 12:04:53;;;;;;;0.10;0.10;;;13.90;99.90;;;;;;6179709;23;19997;-78
2021/05/19 12:07:19;;;;;;;0.10;0.10;;;14.00;99.90;;;;;;6177706;23;20158;-77
2021/05/19 12:09:45;;;;;;;0.10;0.10;;;14.10;99.90;;;;;;6180006;23;20076;-78
2021/05/19 12:12:15;;;;;;;0.10;0.10;;;14.30;99.90;;;;;;6180222;23;20029;-76
2021/05/19 12:14:54;;;;;;;0.10;0.10;;;14.50;99.90;;;;;;6180331;23;20005;-79
2021/05/19 12:17:24;;;;;;;0.10;0.10;;;14.80;99.90;;;;;;6177470;23;20060;-79
2021/05/19 12:19:50;;;;;;;0.10;0.10;;;15.10;99.90;;;;;;6179843;23;20005;-80
2021/05/19 12:22:28;;;;;;;0.10;0.10;;;15.50;99.90;;;;;;6179440;23;20444;-80
2021/05/19 12:24:54;;;;;;;0.10;0.10;;;15.60;99.90;;;;;;6179552;23;20362;-79
2021/05/19 12:27:21;;;;;;;0.10;0.10;;;15.90;99.90;;;;;;6179020;23;20008;-79
2021/05/19 12:29:52;;;;;;;0.10;0.10;;;16.20;99.90;;;;;;6180707;23;20016;-78
2021/05/19 12:32:22;;;;;;;0.10;0.10;;;16.50;99.90;;;;;;6180113;23;20084;-79
2021/05/19 12:35:00;;;;;;;0.10;0.10;;;16.60;99.10;;;;;;6179747;23;20091;-78
2021/05/19 12:37:43;;;;;;;;;;;16.70;97.70;;;;;;6180166;23;20135;-78
2021/05/19 12:40:12;;;;;;;0.10;0.10;;;17.00;98.00;;;;;;6178306;23;19904;-78
2021/05/19 12:42:45;;;;;;;0.10;0.10;;;16.90;97.90;;;;;;6180043;23;19997;-77
2021/05/19 12:45:13;;;;;;;0.10;0.10;;;17.10;97.60;;;;;;6178420;23;20472;-77
2021/05/19 12:47:40;;;;;;;0.10;0.10;;;17.20;97.20;;;;;;6179536;23;20103;-79
2021/05/19 12:50:08;;;;;;;;;;;17.30;97.00;;;;;;6179571;23;20103;-77
2021/05/19 12:52:36;;;;;;;0.10;0.10;;;17.40;96.00;;;;;;6180498;23;19911;-77
2021/05/19 12:55:05;;;;;;;0.10;0.10;;;17.50;94.80;;;;;;6181012;23;20088;-78
2021/05/19 12:57:35;;;;;;;0.10;0.10;;;17.70;94.00;;;;;;6179963;23;20115;-77
2021/05/19 13:00:07;;;;;;;0.10;0.10;;;18.10;93.50;;;;;;6180031;23;20563;-78
2021/05/19 13:02:38;;;;;;;0.10;0.10;;;18.60;92.60;;;;;;6180262;23;20448;-79
2021/05/19 13:05:31;;;;;;;0.20;0.20;;;19.10;90.70;;;;;;6180343;23;20427;-76
2021/05/19 13:07:57;;;;;;;0.10;0.10;;;19.60;88.20;;;;;;6179879;23;20001;-78
2021/05/19 13:10:33;;;;;;;0.10;0.10;;;20.40;84.30;;;;;;6179586;23;20333;-78